createdAt,value
2022-10-11T00:00:01.950Z,18.27
2022-10-11T00:02:43.034Z,18.95
2022-10-11T00:05:21.136Z,28.65
2022-10-11T00:08:06.622Z,21.85
2022-10-11T00:10:44.027Z,19.33
2022-10-11T00:13:26.621Z,17.75
2022-10-11T00:16:20.771Z,20.67
2022-10-11T00:19:14.346Z,23.95
2022-10-11T00:21:58.983Z,18.25
2022-10-11T00:24:40.886Z,19.15
2022-10-11T00:27:21.240Z,20.60
2022-10-11T00:29:58.973Z,19.65
2022-10-11T00:32:43.070Z,32.03
2022-10-11T00:35:24.816Z,26.13
2022-10-11T00:38:03.206Z,25.33
2022-10-11T00:40:45.837Z,21.13
2022-10-11T00:43:30.377Z,20.40
2022-10-11T00:46:20.725Z,21.13
2022-10-11T00:49:11.774Z,20.95
2022-10-11T00:51:56.708Z,22.83
2022-10-11T00:54:42.085Z,32.42
2022-10-11T00:57:27.497Z,29.55
2022-10-11T01:00:09.564Z,27.75
2022-10-11T01:02:50.327Z,24.65
2022-10-11T01:05:36.159Z,27.15
2022-10-11T01:08:14.241Z,23.45
2022-10-11T01:10:57.169Z,21.00
2022-10-11T01:14:04.297Z,25.75
2022-10-11T01:17:17.135Z,26.80
2022-10-11T01:20:20.714Z,34.08
2022-10-11T01:23:15.616Z,35.35
2022-10-11T01:26:18.940Z,27.17
2022-10-11T01:29:02.275Z,30.10
2022-10-11T01:32:06.583Z,24.50
2022-10-11T01:35:06.423Z,20.35
2022-10-11T01:37:59.709Z,32.80
2022-10-11T01:40:49.118Z,25.60
2022-10-11T01:43:31.107Z,19.95
2022-10-11T01:46:10.929Z,29.67
2022-10-11T01:48:53.565Z,25.67
2022-10-11T01:51:46.987Z,19.25
2022-10-11T01:54:56.582Z,25.48
2022-10-11T01:58:09.502Z,22.08
2022-10-11T02:01:20.467Z,22.25
2022-10-11T02:04:27.894Z,21.00
2022-10-11T02:07:12.818Z,19.27
2022-10-11T02:10:07.158Z,20.65
2022-10-11T02:12:57.924Z,22.08
2022-10-11T02:15:38.563Z,26.25
2022-10-11T02:18:27.034Z,23.75
2022-10-11T02:21:12.061Z,21.73
2022-10-11T02:24:06.411Z,20.90
2022-10-11T02:26:54.089Z,27.02
2022-10-11T02:29:40.002Z,26.00
2022-10-11T02:32:21.926Z,24.73
2022-10-11T02:35:05.214Z,20.70
2022-10-11T02:37:56.899Z,21.52
2022-10-11T02:40:42.643Z,23.08
2022-10-11T02:43:32.980Z,31.52
2022-10-11T02:46:18.495Z,21.70
2022-10-11T02:49:01.883Z,27.23
2022-10-11T02:51:44.229Z,25.00
2022-10-11T02:54:26.229Z,24.02
2022-10-11T02:57:07.917Z,23.10
2022-10-11T02:59:52.260Z,21.20
2022-10-11T03:02:32.177Z,32.50
2022-10-11T03:05:12.032Z,22.33
2022-10-11T03:07:54.273Z,27.20
2022-10-11T03:10:38.466Z,24.60
2022-10-11T03:13:23.600Z,17.48
2022-10-11T03:16:06.751Z,24.77
2022-10-11T03:18:47.590Z,32.67
2022-10-11T03:21:30.006Z,20.10
2022-10-11T03:24:09.850Z,18.58
2022-10-11T03:26:47.703Z,23.85
2022-10-11T03:29:34.137Z,18.77
2022-10-11T03:32:18.008Z,24.05
2022-10-11T03:35:02.407Z,20.08
2022-10-11T03:37:44.674Z,24.13
2022-10-11T03:40:26.818Z,22.42
2022-10-11T03:43:07.265Z,24.92
2022-10-11T03:45:49.947Z,21.20
2022-10-11T03:48:32.887Z,27.00
2022-10-11T03:51:15.747Z,21.30
2022-10-11T03:53:57.045Z,20.80
2022-10-11T03:56:37.657Z,26.92
2022-10-11T03:59:17.926Z,19.67
2022-10-11T04:01:59.869Z,23.73
2022-10-11T04:04:42.241Z,20.73
2022-10-11T04:07:21.921Z,25.40
2022-10-11T04:10:05.891Z,22.95
2022-10-11T04:12:43.791Z,21.95
2022-10-11T04:15:26.377Z,23.95
2022-10-11T04:18:07.630Z,22.55
2022-10-11T04:20:47.466Z,22.00
2022-10-11T04:23:30.790Z,23.63
2022-10-11T04:26:13.061Z,49.45
2022-10-11T04:29:01.313Z,36.80
2022-10-11T04:31:46.658Z,26.75
2022-10-11T04:34:28.836Z,28.20
2022-10-11T04:37:07.370Z,32.38
2022-10-11T04:39:47.790Z,25.25
2022-10-11T04:42:26.329Z,27.15
2022-10-11T04:45:05.871Z,30.48
2022-10-11T04:47:51.029Z,21.70
2022-10-11T04:50:32.461Z,29.30
2022-10-11T04:53:15.587Z,34.35
2022-10-11T04:56:01.363Z,28.10
2022-10-11T04:58:47.866Z,23.48
2022-10-11T05:01:29.338Z,27.67
2022-10-11T05:04:11.257Z,31.95
2022-10-11T05:06:51.169Z,29.48
2022-10-11T05:09:30.563Z,27.63
2022-10-11T05:12:10.514Z,34.75
2022-10-11T05:14:49.960Z,32.72
2022-10-11T05:17:31.382Z,34.13
2022-10-11T05:20:09.875Z,25.10
2022-10-11T05:22:49.278Z,34.13
2022-10-11T05:25:31.473Z,34.53
2022-10-11T05:28:10.900Z,29.08
2022-10-11T05:30:52.547Z,27.85
2022-10-11T05:33:29.846Z,24.48
2022-10-11T05:36:09.524Z,26.08
2022-10-11T05:38:52.301Z,24.45
2022-10-11T05:41:34.533Z,22.23
2022-10-11T05:44:18.185Z,22.35
2022-10-11T05:46:58.794Z,28.38
2022-10-11T05:49:38.756Z,32.70
2022-10-11T05:52:21.515Z,34.65
2022-10-11T05:55:07.276Z,29.25
2022-10-11T05:57:47.767Z,34.85
2022-10-11T06:00:27.650Z,25.63
2022-10-11T06:03:08.383Z,25.00
2022-10-11T06:05:49.707Z,23.80
2022-10-11T06:08:33.705Z,29.45
2022-10-11T06:11:23.477Z,25.02
2022-10-11T06:14:17.235Z,29.50
2022-10-11T06:17:12.127Z,26.35
2022-10-11T06:20:05.142Z,29.90
2022-10-11T06:23:04.670Z,26.17
2022-10-11T06:26:05.543Z,23.30
2022-10-11T06:28:59.022Z,31.20
2022-10-11T06:32:03.744Z,30.42
2022-10-11T06:34:57.123Z,24.45
2022-10-11T06:37:59.756Z,26.88
2022-10-11T06:41:13.902Z,28.60
2022-10-11T06:44:14.367Z,31.63
2022-10-11T06:47:10.224Z,24.38
2022-10-11T06:50:13.403Z,33.17
2022-10-11T06:53:16.254Z,31.83
2022-10-11T06:56:11.149Z,24.25
2022-10-11T06:59:06.893Z,20.50
2022-10-11T07:02:18.753Z,35.45
2022-10-11T07:05:11.846Z,25.45
2022-10-11T07:08:08.429Z,22.05
2022-10-11T07:11:10.087Z,32.03
2022-10-11T07:14:22.276Z,28.85
2022-10-11T07:17:36.194Z,23.58
2022-10-11T07:20:35.656Z,29.20
2022-10-11T07:23:42.213Z,22.08
2022-10-11T07:26:42.226Z,23.67
2022-10-11T07:29:41.216Z,23.30
2022-10-11T07:32:46.347Z,24.80
2022-10-11T07:35:47.371Z,24.38
2022-10-11T07:38:46.401Z,27.98
2022-10-11T07:41:54.686Z,23.33
2022-10-11T07:44:58.985Z,23.95
2022-10-11T07:48:00.446Z,35.72
2022-10-11T07:51:14.537Z,27.70
2022-10-11T07:54:07.369Z,23.10
2022-10-11T07:57:04.487Z,28.25
2022-10-11T07:59:59.897Z,18.17
2022-10-11T08:03:15.455Z,20.40
2022-10-11T08:05:54.213Z,22.58
2022-10-11T08:08:57.701Z,16.48
2022-10-11T08:11:52.044Z,22.73
2022-10-11T08:15:04.210Z,19.02
2022-10-11T08:18:20.417Z,16.92
2022-10-11T08:21:47.267Z,14.57
2022-10-11T08:24:44.739Z,17.42
2022-10-11T08:27:41.028Z,15.43
2022-10-11T08:30:41.581Z,12.23
2022-10-11T08:33:38.632Z,14.00
2022-10-11T08:36:48.626Z,10.27
2022-10-11T08:39:48.415Z,12.75
2022-10-11T08:42:53.386Z,7.68
2022-10-11T08:45:29.494Z,8.55
2022-10-11T08:48:25.702Z,7.40
2022-10-11T08:50:58.113Z,10.52
2022-10-11T08:53:51.654Z,10.82
2022-10-11T08:56:25.690Z,12.45
2022-10-11T08:59:39.418Z,6.10
2022-10-11T09:03:08.635Z,7.18
2022-10-11T09:05:58.726Z,7.47
2022-10-11T09:08:37.696Z,9.48
2022-10-11T09:11:45.151Z,8.07
2022-10-11T09:14:46.296Z,8.15
2022-10-11T09:17:37.465Z,7.20
2022-10-11T09:20:31.210Z,13.27
2022-10-11T09:23:21.667Z,9.40
2022-10-11T09:26:02.837Z,11.40
2022-10-11T09:28:47.875Z,9.27
2022-10-11T09:31:20.383Z,6.78
2022-10-11T09:33:49.907Z,8.65
2022-10-11T09:36:29.131Z,5.50
2022-10-11T09:39:17.902Z,10.32
2022-10-11T09:41:55.362Z,8.48
2022-10-11T09:44:26.339Z,7.80
2022-10-11T09:46:55.521Z,11.77
2022-10-11T09:49:31.788Z,6.32
2022-10-11T09:52:05.162Z,7.22
2022-10-11T09:54:41.070Z,14.73
2022-10-11T09:57:20.939Z,4.07
2022-10-11T10:00:15.685Z,9.77
2022-10-11T10:02:53.619Z,7.40
2022-10-11T10:05:33.827Z,7.93
2022-10-11T10:08:05.031Z,10.25
2022-10-11T10:10:39.765Z,14.70
2022-10-11T10:13:19.834Z,6.47
2022-10-11T10:15:55.183Z,7.10
2022-10-11T10:18:33.923Z,8.60
2022-10-11T10:21:02.426Z,9.30
2022-10-11T10:23:33.339Z,8.65
2022-10-11T10:26:20.641Z,9.77
2022-10-11T10:29:26.003Z,6.55
2022-10-11T10:35:03.546Z,11.57
2022-10-11T10:37:42.602Z,6.93
2022-10-11T10:40:17.354Z,3.58
2022-10-11T10:42:44.739Z,9.80
2022-10-11T10:45:21.093Z,9.93
2022-10-11T10:48:07.450Z,8.77
2022-10-11T10:50:54.642Z,10.63
2022-10-11T10:53:39.960Z,7.35
2022-10-11T10:56:15.881Z,9.18
2022-10-11T10:58:51.526Z,9.07
2022-10-11T11:01:50.475Z,8.70
2022-10-11T11:04:33.431Z,10.45
2022-10-11T11:07:24.687Z,13.32
2022-10-11T11:09:58.620Z,7.60
2022-10-11T11:12:52.387Z,7.22
2022-10-11T11:15:33.129Z,7.88
2022-10-11T11:18:37.159Z,5.63
2022-10-11T11:21:41.499Z,8.85
2022-10-11T11:24:38.324Z,6.32
2022-10-11T11:27:16.244Z,11.55
2022-10-11T11:30:20.126Z,7.07
2022-10-11T11:33:10.290Z,6.30
2022-10-11T11:35:48.601Z,6.28
2022-10-11T11:38:42.590Z,4.82
2022-10-11T11:41:27.613Z,5.72
2022-10-11T11:44:27.429Z,7.05
2022-10-11T11:47:01.650Z,13.23
2022-10-11T11:49:38.171Z,8.45
2022-10-11T11:52:13.107Z,11.52
2022-10-11T11:54:44.734Z,6.50
2022-10-11T11:57:26.076Z,10.55
2022-10-11T12:00:05.062Z,4.78
2022-10-11T12:03:09.110Z,10.40
2022-10-11T12:05:58.806Z,9.55
2022-10-11T12:08:31.606Z,6.05
2022-10-11T12:11:02.394Z,5.72
2022-10-11T12:13:37.825Z,9.07
2022-10-11T12:16:09.802Z,9.27
2022-10-11T12:19:00.110Z,12.65
2022-10-11T12:21:35.378Z,4.65
2022-10-11T12:24:11.857Z,6.30
2022-10-11T12:26:47.227Z,8.90
2022-10-11T12:29:24.575Z,5.22
2022-10-11T12:32:00.109Z,15.15
2022-10-11T12:34:36.925Z,10.07
2022-10-11T12:37:33.410Z,13.02
2022-10-11T12:40:02.929Z,11.95
2022-10-11T12:42:35.199Z,3.72
2022-10-11T12:45:16.968Z,6.05
2022-10-11T12:48:22.642Z,9.27
2022-10-11T12:51:28.174Z,6.72
2022-10-11T12:54:32.116Z,5.45
2022-10-11T12:57:12.088Z,9.65
2022-10-11T12:59:44.666Z,5.68
2022-10-11T13:02:29.956Z,6.28
2022-10-11T13:05:30.359Z,6.90
2022-10-11T13:08:05.452Z,8.55
2022-10-11T13:10:45.828Z,11.52
2022-10-11T13:13:30.381Z,6.43
2022-10-11T13:16:08.446Z,5.72
2022-10-11T13:18:45.158Z,9.75
2022-10-11T13:21:27.014Z,5.25
2022-10-11T13:24:16.238Z,9.18
2022-10-11T13:26:49.163Z,8.32
2022-10-11T13:29:30.181Z,7.53
2022-10-11T13:32:03.852Z,5.72
2022-10-11T13:34:36.525Z,10.30
2022-10-11T13:37:06.657Z,6.47
2022-10-11T13:39:41.706Z,7.82
2022-10-11T13:42:16.984Z,6.88
2022-10-11T13:44:46.008Z,8.63
2022-10-11T13:47:18.608Z,7.55
2022-10-11T13:50:17.007Z,5.90
2022-10-11T13:53:06.803Z,7.00
2022-10-11T13:55:42.731Z,10.40
2022-10-11T13:58:23.825Z,12.43
2022-10-11T14:01:05.356Z,21.25
2022-10-11T14:03:46.592Z,12.32
2022-10-11T14:06:17.068Z,9.88
2022-10-11T14:08:53.938Z,14.60
2022-10-11T14:11:35.799Z,13.70
2022-10-11T14:14:30.548Z,10.23
2022-10-11T14:17:05.009Z,10.02
2022-10-11T14:19:32.527Z,9.75
2022-10-11T14:22:00.356Z,9.18
2022-10-11T14:24:31.782Z,8.20
2022-10-11T14:27:05.653Z,8.40
2022-10-11T14:29:55.628Z,10.98
2022-10-11T14:32:36.579Z,8.65
2022-10-11T14:35:04.788Z,7.78
2022-10-11T14:37:34.273Z,14.60
2022-10-11T14:40:16.443Z,9.02
2022-10-11T14:42:51.578Z,18.42
2022-10-11T14:45:22.350Z,8.90
2022-10-11T14:47:52.876Z,12.75
2022-10-11T14:50:33.650Z,16.50
2022-10-11T14:53:01.384Z,12.80
2022-10-11T14:55:31.263Z,9.02
2022-10-11T14:58:00.928Z,17.05
2022-10-11T15:00:29.783Z,8.43
2022-10-11T15:02:59.607Z,9.20
2022-10-11T15:05:33.861Z,9.82
2022-10-11T15:08:05.909Z,9.60
2022-10-11T15:10:41.294Z,10.40
2022-10-11T15:13:13.164Z,15.40
2022-10-11T15:15:41.569Z,15.25
2022-10-11T15:18:17.485Z,16.30
2022-10-11T15:20:47.762Z,12.98
2022-10-11T15:23:14.992Z,14.93
2022-10-11T15:25:42.658Z,8.98
2022-10-11T15:28:28.212Z,6.72
2022-10-11T15:30:58.409Z,9.30
2022-10-11T15:33:26.029Z,12.10
2022-10-11T15:35:57.768Z,12.20
2022-10-11T15:38:25.889Z,11.20
2022-10-11T15:40:54.120Z,9.85
2022-10-11T15:43:27.421Z,13.60
2022-10-11T15:45:58.908Z,14.52
2022-10-11T15:48:29.471Z,12.32
2022-10-11T15:50:58.678Z,7.63
2022-10-11T15:53:31.415Z,7.80
2022-10-11T15:56:06.853Z,11.00
2022-10-11T15:58:36.902Z,11.35
2022-10-11T16:01:09.956Z,14.88
2022-10-11T16:03:40.393Z,17.27
2022-10-11T16:06:13.345Z,13.50
2022-10-11T16:08:42.947Z,16.10
2022-10-11T16:11:16.336Z,9.18
2022-10-11T16:13:48.327Z,17.10
2022-10-11T16:16:20.385Z,10.32
2022-10-11T16:18:49.962Z,12.07
2022-10-11T16:21:17.552Z,15.20
2022-10-11T16:23:44.726Z,23.42
2022-10-11T16:26:16.835Z,8.82
2022-10-11T16:28:48.756Z,15.50
2022-10-11T16:31:22.287Z,12.65
2022-10-11T16:33:55.649Z,11.50
2022-10-11T16:36:33.126Z,9.45
2022-10-11T16:39:01.830Z,14.23
2022-10-11T16:41:31.701Z,11.82
2022-10-11T16:44:03.483Z,10.38
2022-10-11T16:46:34.276Z,6.55
2022-10-11T16:49:01.415Z,8.90
2022-10-11T16:51:31.491Z,16.27
2022-10-11T16:53:59.119Z,14.40
2022-10-11T16:56:37.394Z,22.90
2022-10-11T16:59:07.409Z,14.73
2022-10-11T17:01:37.293Z,10.90
2022-10-11T17:04:04.778Z,13.23
2022-10-11T17:06:34.594Z,13.23
2022-10-11T17:09:04.704Z,6.40
2022-10-11T17:11:36.885Z,13.23
2022-10-11T17:14:07.841Z,13.15
2022-10-11T17:16:39.355Z,13.73
2022-10-11T17:19:13.519Z,14.15
2022-10-11T17:21:40.687Z,18.77
2022-10-11T17:24:08.526Z,16.83
2022-10-11T17:26:35.679Z,17.15
2022-10-11T17:29:07.469Z,27.83
2022-10-11T17:31:38.962Z,87.75
2022-10-11T17:34:10.007Z,27.80
2022-10-11T17:36:40.082Z,66.18
2022-10-11T17:39:15.899Z,73.10
2022-10-11T17:41:44.671Z,58.05
2022-10-11T17:44:13.078Z,52.80
2022-10-11T17:46:47.392Z,45.65
2022-10-11T17:51:42.628Z,25.13
2022-10-11T17:54:12.920Z,29.13
2022-10-11T17:56:43.176Z,27.80
2022-10-11T17:59:21.234Z,31.02
2022-10-11T18:01:57.339Z,32.08
2022-10-11T18:04:26.980Z,22.90
2022-10-11T18:06:56.866Z,28.02
2022-10-11T18:09:29.418Z,19.65
2022-10-11T18:11:58.703Z,18.08
2022-10-11T18:14:28.045Z,11.55
2022-10-11T18:16:58.464Z,26.05
2022-10-11T18:19:25.616Z,13.75
2022-10-11T18:21:53.036Z,19.27
2022-10-11T18:24:27.275Z,25.58
2022-10-11T18:29:24.098Z,18.48
2022-10-11T18:31:53.503Z,18.85
2022-10-11T18:34:22.970Z,16.83
2022-10-11T18:36:55.320Z,18.30
2022-10-11T18:39:25.140Z,17.33
2022-10-11T18:41:52.755Z,22.65
2022-10-11T18:44:22.867Z,20.83
2022-10-11T18:46:55.040Z,18.73
2022-10-11T18:49:22.162Z,26.27
2022-10-11T18:51:51.922Z,26.67
2022-10-11T18:54:21.887Z,24.23
2022-10-11T18:56:49.012Z,21.45
2022-10-11T18:59:22.901Z,21.35
2022-10-11T19:01:52.693Z,24.48
2022-10-11T19:04:22.193Z,20.65
2022-10-11T19:06:53.285Z,19.60
2022-10-11T19:09:26.382Z,26.63
2022-10-11T19:11:57.634Z,33.17
2022-10-11T19:14:30.104Z,63.45
2022-10-11T19:17:02.373Z,22.92
2022-10-11T19:19:33.155Z,23.80
2022-10-11T19:22:03.609Z,36.97
2022-10-11T19:24:32.538Z,43.40
2022-10-11T19:27:03.150Z,35.95
2022-10-11T19:29:34.703Z,26.50
2022-10-11T19:32:05.338Z,42.42
2022-10-11T19:34:35.589Z,40.88
2022-10-11T19:37:06.003Z,31.48
2022-10-11T19:39:37.820Z,33.83
2022-10-11T19:42:10.730Z,41.05
2022-10-11T19:44:39.784Z,25.70
2022-10-11T19:47:10.109Z,39.22
2022-10-11T19:49:39.658Z,35.17
2022-10-11T19:52:09.371Z,34.38
2022-10-11T19:54:36.661Z,39.08
2022-10-11T19:57:09.486Z,33.03
2022-10-11T19:59:36.925Z,37.00
2022-10-11T20:02:06.641Z,45.65
2022-10-11T20:04:51.577Z,34.28
2022-10-11T20:07:21.570Z,48.60
2022-10-11T20:09:53.649Z,48.58
2022-10-11T20:12:29.498Z,46.33
2022-10-11T20:14:57.017Z,45.33
2022-10-11T20:17:47.957Z,45.00
2022-10-11T20:20:17.098Z,53.17
2022-10-11T20:22:44.325Z,45.90
2022-10-11T20:25:16.586Z,50.05
2022-10-11T20:27:48.883Z,39.53
2022-10-11T20:30:18.912Z,44.50
2022-10-11T20:32:46.066Z,36.45
2022-10-11T20:35:13.504Z,37.97
2022-10-11T20:37:42.826Z,41.97
2022-10-11T20:40:13.311Z,36.22
2022-10-11T20:42:42.891Z,48.65
2022-10-11T20:45:10.599Z,36.30
2022-10-11T20:47:42.664Z,37.85
2022-10-11T20:50:09.948Z,38.85
2022-10-11T20:52:38.616Z,39.35
2022-10-11T20:55:06.714Z,46.30
2022-10-11T20:57:34.186Z,33.88
2022-10-11T21:00:04.946Z,47.92
2022-10-11T21:02:32.328Z,37.45
2022-10-11T21:04:59.747Z,65.82
2022-10-11T21:07:27.146Z,41.85
2022-10-11T21:09:54.204Z,46.67
2022-10-11T21:12:21.455Z,63.22
2022-10-11T21:14:50.639Z,47.85
2022-10-11T21:17:20.439Z,54.60
2022-10-11T21:19:48.389Z,59.53
2022-10-11T21:22:18.011Z,45.05
2022-10-11T21:24:52.283Z,53.95
2022-10-11T21:27:27.272Z,60.13
2022-10-11T21:29:57.617Z,69.82
2022-10-11T21:32:27.419Z,83.50
2022-10-11T21:34:54.732Z,70.65
2022-10-11T21:37:24.306Z,68.72
2022-10-11T21:39:51.646Z,82.25
2022-10-11T21:42:22.264Z,79.55
2022-10-11T21:44:53.393Z,83.60
2022-10-11T21:47:21.093Z,80.05
2022-10-11T21:49:48.332Z,90.47
2022-10-11T21:52:15.458Z,89.68
2022-10-11T21:54:42.859Z,98.05
2022-10-11T21:57:12.859Z,95.50
2022-10-11T21:59:44.709Z,94.50
2022-10-11T22:02:15.085Z,91.40
2022-10-11T22:04:42.348Z,100.05
2022-10-11T22:07:09.599Z,95.95
2022-10-11T22:09:36.865Z,92.70
2022-10-11T22:12:05.177Z,89.05
2022-10-11T22:14:34.740Z,100.25
2022-10-11T22:17:06.639Z,88.82
2022-10-11T22:19:33.810Z,107.40
2022-10-11T22:22:03.421Z,109.75
2022-10-11T22:24:33.211Z,106.97
2022-10-11T22:27:03.039Z,92.38
2022-10-11T22:29:34.289Z,103.78
2022-10-11T22:32:07.608Z,103.90
2022-10-11T22:34:39.901Z,99.65
2022-10-11T22:37:11.985Z,92.85
2022-10-11T22:39:39.102Z,95.40
2022-10-11T22:42:06.303Z,103.68
2022-10-11T22:44:38.842Z,103.10
2022-10-11T22:47:09.211Z,93.93
2022-10-11T22:49:36.346Z,102.22
2022-10-11T22:52:08.443Z,100.60
2022-10-11T22:54:37.961Z,96.95
2022-10-11T22:57:10.180Z,92.55
2022-10-11T22:59:39.542Z,91.60
2022-10-11T23:02:11.232Z,101.85
2022-10-11T23:04:40.610Z,94.07
2022-10-11T23:07:07.798Z,106.28
2022-10-11T23:09:37.667Z,91.60
2022-10-11T23:12:05.232Z,103.60
2022-10-11T23:14:32.335Z,95.03
2022-10-11T23:16:59.426Z,95.35
2022-10-11T23:19:26.622Z,97.25
2022-10-11T23:21:58.510Z,91.82
2022-10-11T23:24:25.533Z,90.10
2022-10-11T23:26:57.290Z,101.75
2022-10-11T23:29:26.585Z,98.82
2022-10-11T23:31:56.205Z,95.68
2022-10-11T23:34:25.964Z,93.03
2022-10-11T23:36:53.112Z,95.25
2022-10-11T23:39:22.469Z,88.05
2022-10-11T23:41:57.750Z,90.43
2022-10-11T23:44:29.661Z,93.13
2022-10-11T23:46:56.975Z,89.70
2022-10-11T23:49:26.056Z,94.68
2022-10-11T23:51:53.219Z,104.53
2022-10-11T23:54:20.442Z,87.35
2022-10-11T23:56:49.824Z,100.57
2022-10-11T23:59:17.041Z,84.05
